Time;durP1;ratioP1;P1;durP2;ratioP2;P2;SDS_P1;SDS_P2;PMS_P1;PMS_P2;Temp;Humidity;BMP_temperature;BMP_pressure;BME280_temperature;BME280_humidity;BME280_pressure;Samples;Min_cycle;Max_cycle;Signal;HPM_P1;HPM_P2
2022/04/29 00:00:09;;;;;;;22.70;11.47;;;8.20;97.30;;;;;;5029594;28;20473;-76
2022/04/29 00:02:36;;;;;;;24.53;12.80;;;8.20;97.30;;;;;;5029681;28;20429;-76
2022/04/29 00:05:02;;;;;;;24.30;11.93;;;8.10;97.30;;;;;;5030638;28;20435;-76
2022/04/29 00:07:28;;;;;;;25.90;13.30;;;8.10;97.30;;;;;;5029481;28;20473;-76
2022/04/29 00:09:53;;;;;;;24.23;11.93;;;8.00;97.30;;;;;;5030586;28;20446;-75
2022/04/29 00:12:19;;;;;;;20.40;12.20;;;8.00;97.30;;;;;;5029237;28;20192;-75
2022/04/29 00:14:45;;;;;;;24.77;12.50;;;7.90;97.30;;;;;;5029301;28;20235;-75
2022/04/29 00:17:11;;;;;;;23.03;12.60;;;7.80;97.30;;;;;;5029343;28;20215;-75
2022/04/29 00:19:37;;;;;;;25.20;13.17;;;7.70;97.30;;;;;;5030509;28;20418;-75
2022/04/29 00:22:03;;;;;;;22.30;12.20;;;7.70;97.30;;;;;;5030316;28;20419;-75
2022/04/29 00:24:30;;;;;;;24.13;12.50;;;7.70;97.30;;;;;;5030432;28;20443;-75
2022/04/29 00:26:56;;;;;;;22.20;11.73;;;7.60;97.30;;;;;;5030760;28;20789;-76
2022/04/29 00:29:22;;;;;;;18.47;11.80;;;7.60;97.30;;;;;;5030127;28;20434;-76
2022/04/29 00:31:47;;;;;;;23.33;12.10;;;7.60;97.30;;;;;;5029224;28;20184;-76
2022/04/29 00:34:13;;;;;;;18.77;10.30;;;7.60;97.30;;;;;;5029109;28;20180;-76
2022/04/29 00:36:38;;;;;;;19.03;10.63;;;7.60;97.30;;;;;;5030681;28;20208;-79
2022/04/29 00:39:04;;;;;;;21.07;11.67;;;7.50;97.30;;;;;;5029091;28;20224;-76
2022/04/29 00:41:29;;;;;;;24.40;12.10;;;7.50;97.30;;;;;;5029044;28;20179;-77
2022/04/29 00:44:13;;;;;;;20.57;12.10;;;7.40;97.30;;;;;;5029261;28;20176;-77
2022/04/29 00:46:45;;;;;;;19.87;10.50;;;7.40;97.30;;;;;;5029294;28;20183;-77
2022/04/29 00:49:12;;;;;;;20.20;11.43;;;7.30;97.30;;;;;;5029440;28;21106;-76
2022/04/29 00:51:40;;;;;;;24.43;11.67;;;7.20;97.30;;;;;;5029318;28;20794;-77
2022/04/29 00:54:13;;;;;;;22.50;12.87;;;7.20;97.30;;;;;;5028871;28;20863;-76
2022/04/29 00:56:42;;;;;;;19.60;10.73;;;7.20;97.30;;;;;;5028985;28;20455;-76
2022/04/29 00:59:15;;;;;;;25.97;12.10;;;7.10;97.30;;;;;;5029198;28;20423;-76
2022/04/29 01:01:44;;;;;;;23.20;11.97;;;7.10;97.30;;;;;;5030030;28;20498;-76
2022/04/29 01:04:18;;;;;;;20.07;11.07;;;7.00;97.30;;;;;;5029331;28;20434;-76
2022/04/29 01:06:46;;;;;;;21.27;11.70;;;6.90;97.30;;;;;;5029429;28;20458;-76
2022/04/29 01:09:11;;;;;;;24.50;11.50;;;7.00;97.30;;;;;;5028955;28;20431;-76
2022/04/29 01:11:38;;;;;;;24.10;12.00;;;7.00;97.30;;;;;;5029094;28;20489;-75
2022/04/29 01:14:05;;;;;;;21.47;11.07;;;7.00;97.30;;;;;;5029984;28;20188;-77
2022/04/29 01:16:33;;;;;;;24.87;11.23;;;6.90;97.30;;;;;;5029257;28;20467;-76
2022/04/29 01:18:59;;;;;;;18.00;11.17;;;6.90;97.30;;;;;;5028981;28;20821;-75
2022/04/29 01:21:27;;;;;;;20.47;9.83;;;6.90;97.30;;;;;;5029246;28;20932;-76
2022/04/29 01:23:55;;;;;;;26.40;11.87;;;6.80;97.30;;;;;;5029434;28;20419;-76
2022/04/29 01:26:21;;;;;;;23.00;12.13;;;6.80;97.30;;;;;;5029553;28;20949;-76
2022/04/29 01:28:47;;;;;;;28.60;12.17;;;6.80;97.30;;;;;;5031847;28;20418;-76
2022/04/29 01:31:16;;;;;;;19.50;11.03;;;6.80;97.30;;;;;;5033275;28;20411;-75
2022/04/29 01:33:46;;;;;;;23.10;12.57;;;6.70;97.30;;;;;;5033285;28;20442;-76
2022/04/29 01:36:13;;;;;;;19.90;10.90;;;6.70;97.30;;;;;;5032663;28;20463;-75
2022/04/29 01:38:39;;;;;;;19.97;11.60;;;6.70;97.30;;;;;;5032617;28;20482;-76
2022/04/29 01:41:07;;;;;;;30.47;12.00;;;6.60;97.30;;;;;;5033402;28;20447;-77
2022/04/29 01:43:35;;;;;;;24.93;11.90;;;6.60;97.30;;;;;;5034415;28;20447;-77
2022/04/29 01:46:03;;;;;;;19.40;11.20;;;6.50;97.30;;;;;;5033805;28;20450;-76
2022/04/29 01:48:29;;;;;;;27.97;12.43;;;6.40;97.30;;;;;;5035177;28;20453;-74
2022/04/29 01:50:56;;;;;;;26.00;12.80;;;6.40;97.30;;;;;;5032990;28;20989;-76
2022/04/29 01:53:23;;;;;;;24.90;12.27;;;6.30;97.30;;;;;;5033458;28;20427;-76
2022/04/29 01:55:49;;;;;;;23.57;11.70;;;6.30;97.30;;;;;;5033316;28;20450;-76
2022/04/29 01:58:16;;;;;;;23.90;12.23;;;6.20;97.30;;;;;;5033092;28;20470;-78
2022/04/29 02:00:43;;;;;;;28.60;12.67;;;6.20;97.30;;;;;;5033153;28;20415;-76
2022/04/29 02:03:10;;;;;;;19.60;11.27;;;6.20;97.30;;;;;;5032985;28;20429;-75
2022/04/29 02:05:36;;;;;;;23.20;12.17;;;6.20;97.30;;;;;;5032916;28;20481;-76
2022/04/29 02:08:03;;;;;;;22.87;11.63;;;6.20;97.30;;;;;;5034731;28;20415;-75
2022/04/29 02:10:29;;;;;;;23.80;11.40;;;6.20;97.30;;;;;;5032932;28;20426;-76
2022/04/29 02:12:55;;;;;;;23.17;11.73;;;6.10;97.30;;;;;;5032762;28;20437;-76
2022/04/29 02:15:22;;;;;;;21.57;11.73;;;6.10;97.30;;;;;;5032588;28;20516;-76
2022/04/29 02:17:49;;;;;;;22.57;11.77;;;6.10;97.30;;;;;;5032548;28;20486;-76
2022/04/29 02:20:16;;;;;;;25.10;11.63;;;6.10;97.30;;;;;;5032715;28;20994;-76
2022/04/29 02:22:44;;;;;;;23.93;12.30;;;6.10;97.30;;;;;;5032440;28;20407;-76
2022/04/29 02:25:12;;;;;;;21.10;11.27;;;6.00;97.30;;;;;;5032928;28;20432;-75
2022/04/29 02:27:41;;;;;;;21.57;11.50;;;6.00;97.30;;;;;;5032019;28;20492;-76
2022/04/29 02:30:09;;;;;;;19.67;10.87;;;5.90;97.30;;;;;;5033008;28;20422;-75
2022/04/29 02:32:36;;;;;;;22.00;11.70;;;5.90;97.30;;;;;;5031626;28;20936;-76
2022/04/29 02:35:03;;;;;;;24.83;11.40;;;5.90;97.30;;;;;;5032796;28;20568;-77
2022/04/29 02:37:30;;;;;;;23.00;13.13;;;5.80;97.30;;;;;;5031260;28;20479;-76
2022/04/29 02:39:56;;;;;;;23.20;11.53;;;5.80;97.30;;;;;;5030720;28;20411;-76
2022/04/29 02:42:23;;;;;;;20.60;10.77;;;5.80;97.30;;;;;;5031720;28;20995;-76
2022/04/29 02:44:50;;;;;;;17.47;10.20;;;5.80;97.30;;;;;;5031492;28;20431;-77
2022/04/29 02:47:16;;;;;;;22.27;11.50;;;5.70;97.30;;;;;;5033115;28;20807;-76
2022/04/29 02:49:43;;;;;;;22.03;11.07;;;5.70;97.30;;;;;;5031476;28;20426;-76
2022/04/29 02:52:12;;;;;;;18.67;10.33;;;5.60;97.30;;;;;;5032849;28;20238;-76
2022/04/29 02:54:40;;;;;;;20.50;10.77;;;5.60;97.30;;;;;;5031414;28;20866;-76
2022/04/29 02:57:07;;;;;;;20.63;11.10;;;5.50;97.30;;;;;;5031465;28;20471;-76
2022/04/29 02:59:35;;;;;;;24.93;12.10;;;5.50;97.30;;;;;;5031860;28;20466;-76
2022/04/29 03:02:01;;;;;;;21.60;11.33;;;5.40;97.30;;;;;;5031917;28;20466;-76
2022/04/29 03:04:28;;;;;;;22.20;11.83;;;5.40;97.30;;;;;;5032025;28;20447;-76
2022/04/29 03:06:54;;;;;;;28.60;10.67;;;5.40;97.30;;;;;;5032093;28;20419;-77
2022/04/29 03:09:21;;;;;;;20.57;11.00;;;5.40;97.30;;;;;;5031774;28;20427;-77
2022/04/29 03:11:50;;;;;;;27.87;12.57;;;5.40;97.30;;;;;;5031857;28;20972;-75
2022/04/29 03:14:18;;;;;;;23.10;11.37;;;5.40;97.30;;;;;;5031564;28;20485;-77
2022/04/29 03:16:44;;;;;;;22.70;11.97;;;5.30;97.30;;;;;;5031910;28;20466;-77
2022/04/29 03:19:12;;;;;;;25.40;11.60;;;5.20;97.30;;;;;;5031995;28;20462;-77
2022/04/29 03:21:38;;;;;;;20.47;11.07;;;5.20;97.30;;;;;;5031496;28;20450;-76
2022/04/29 03:24:05;;;;;;;23.93;11.97;;;5.10;97.30;;;;;;5030836;28;20466;-76
2022/04/29 03:26:31;;;;;;;22.47;12.17;;;5.10;97.30;;;;;;5030320;28;20415;-75
2022/04/29 03:28:57;;;;;;;19.90;11.10;;;5.10;97.30;;;;;;5030405;28;20497;-74
2022/04/29 03:31:22;;;;;;;22.23;10.70;;;5.10;97.30;;;;;;5031440;28;20442;-74
2022/04/29 03:33:48;;;;;;;25.63;11.70;;;5.00;97.30;;;;;;5030015;28;20263;-75
2022/04/29 03:36:14;;;;;;;30.27;13.63;;;5.00;97.30;;;;;;5029850;28;20188;-75
2022/04/29 03:38:40;;;;;;;21.20;12.13;;;5.10;97.30;;;;;;5029669;28;20231;-74
2022/04/29 03:41:06;;;;;;;27.17;12.40;;;5.10;97.30;;;;;;5031005;28;20913;-74
2022/04/29 03:43:32;;;;;;;23.33;11.67;;;5.00;97.30;;;;;;5029853;28;20189;-74
2022/04/29 03:45:58;;;;;;;24.73;11.27;;;5.00;97.30;;;;;;5030998;28;20446;-74
2022/04/29 03:48:24;;;;;;;21.33;11.30;;;5.00;97.30;;;;;;5030957;28;20403;-74
2022/04/29 03:50:51;;;;;;;23.07;11.70;;;5.00;97.30;;;;;;5029159;28;20187;-74
2022/04/29 03:53:17;;;;;;;22.10;11.27;;;4.90;97.30;;;;;;5010523;28;20251;-75
2022/04/29 03:55:43;;;;;;;24.30;11.30;;;4.90;97.30;;;;;;5023730;28;20435;-75
2022/04/29 03:58:11;;;;;;;28.73;11.40;;;4.90;97.30;;;;;;5029701;28;20208;-76
2022/04/29 04:00:38;;;;;;;20.13;11.00;;;4.90;97.30;;;;;;5030505;28;21063;-76
2022/04/29 04:03:05;;;;;;;22.30;11.27;;;4.90;97.30;;;;;;5030436;28;20423;-77
2022/04/29 04:05:33;;;;;;;18.83;10.67;;;5.00;97.30;;;;;;5029336;28;20431;-77
2022/04/29 04:07:59;;;;;;;29.40;13.03;;;5.00;97.30;;;;;;5029314;28;20822;-76
2022/04/29 04:10:26;;;;;;;27.93;12.97;;;5.00;97.30;;;;;;5028958;28;20427;-75
2022/04/29 04:12:54;;;;;;;21.07;11.53;;;5.00;97.30;;;;;;5030260;28;20455;-76
2022/04/29 04:15:23;;;;;;;29.70;12.20;;;5.10;97.30;;;;;;5029539;28;20538;-76
2022/04/29 04:17:50;;;;;;;23.53;12.57;;;5.00;97.30;;;;;;5029592;28;20504;-76
2022/04/29 04:20:18;;;;;;;26.40;11.80;;;5.00;97.30;;;;;;5029640;28;20411;-76
2022/04/29 04:22:45;;;;;;;23.70;11.67;;;5.00;97.30;;;;;;5029908;28;20412;-76
2022/04/29 04:25:14;;;;;;;22.33;12.20;;;5.00;97.30;;;;;;5029449;28;20457;-77
2022/04/29 04:27:42;;;;;;;24.27;11.80;;;5.00;97.30;;;;;;5030148;28;20418;-74
2022/04/29 04:30:11;;;;;;;22.30;11.23;;;5.00;97.30;;;;;;5028810;28;20426;-75
2022/04/29 04:32:39;;;;;;;20.87;11.20;;;5.00;97.30;;;;;;5027262;28;20430;-76
2022/04/29 04:35:08;;;;;;;21.43;12.30;;;5.00;97.30;;;;;;5028911;28;20446;-77
2022/04/29 04:37:37;;;;;;;24.50;12.17;;;5.00;97.30;;;;;;5028874;28;20497;-78
2022/04/29 04:40:06;;;;;;;21.77;11.33;;;5.10;97.30;;;;;;5029656;28;20415;-75
2022/04/29 04:42:42;;;;;;;30.30;12.13;;;5.20;97.30;;;;;;5029642;28;20415;-76
2022/04/29 04:45:09;;;;;;;28.30;12.70;;;5.30;97.30;;;;;;5028786;28;21004;-77
2022/04/29 04:47:36;;;;;;;24.83;12.03;;;5.40;97.30;;;;;;5028414;28;20502;-75
2022/04/29 04:50:07;;;;;;;24.57;11.57;;;5.50;97.30;;;;;;5029360;28;20427;-74
2022/04/29 04:52:34;;;;;;;19.80;10.70;;;5.60;97.30;;;;;;5013454;28;20481;-75
2022/04/29 04:55:07;;;;;;;21.03;11.23;;;5.70;97.30;;;;;;5031048;28;20488;-74
2022/04/29 04:57:33;;;;;;;25.57;13.20;;;5.80;97.30;;;;;;5030651;28;20933;-74
2022/04/29 05:00:00;;;;;;;23.57;13.00;;;5.90;97.30;;;;;;5029701;28;20430;-74
2022/04/29 05:02:38;;;;;;;30.47;12.57;;;6.00;97.30;;;;;;5030014;28;20921;-74
2022/04/29 05:05:07;;;;;;;26.27;14.13;;;6.10;97.30;;;;;;5033584;28;20431;-74
2022/04/29 05:07:34;;;;;;;26.83;13.80;;;6.30;97.30;;;;;;5033116;28;20784;-74
2022/04/29 05:10:03;;;;;;;26.63;13.53;;;6.40;97.30;;;;;;5033419;28;20431;-74
2022/04/29 05:12:30;;;;;;;29.07;13.77;;;6.50;97.30;;;;;;5033325;28;20423;-74
2022/04/29 05:14:57;;;;;;;25.60;13.47;;;6.70;97.30;;;;;;5033037;28;20443;-74
2022/04/29 05:17:24;;;;;;;31.50;13.93;;;6.80;97.30;;;;;;5033084;28;20554;-74
2022/04/29 05:20:00;;;;;;;25.60;13.60;;;6.90;97.30;;;;;;5033510;28;20512;-75
2022/04/29 05:22:29;;;;;;;27.17;13.73;;;7.10;97.30;;;;;;5031709;28;20421;-75
2022/04/29 05:24:55;;;;;;;27.90;14.70;;;7.20;97.30;;;;;;5031045;28;20431;-75
2022/04/29 05:27:21;;;;;;;27.63;14.00;;;7.30;97.30;;;;;;5034625;28;20985;-76
2022/04/29 05:29:47;;;;;;;26.00;13.33;;;7.50;97.30;;;;;;5030140;28;20434;-76
2022/04/29 05:32:14;;;;;;;30.30;14.23;;;7.60;97.30;;;;;;5030942;28;20318;-76
2022/04/29 05:34:40;;;;;;;30.50;14.00;;;7.70;97.30;;;;;;5031768;28;20208;-76
2022/04/29 05:37:05;;;;;;;33.57;15.37;;;7.80;97.30;;;;;;5030786;28;20454;-76
2022/04/29 05:42:18;;;;;;;46.10;17.20;;;8.00;97.30;;;;;;5032663;28;20187;-76
2022/04/29 05:44:44;;;;;;;32.57;17.20;;;8.10;97.30;;;;;;5031404;28;20551;-76
2022/04/29 05:47:10;;;;;;;28.57;15.37;;;8.20;97.30;;;;;;5032958;28;20415;-76
2022/04/29 05:49:36;;;;;;;28.20;14.53;;;8.30;97.30;;;;;;5032865;28;20418;-76
2022/04/29 05:52:03;;;;;;;32.97;14.13;;;8.30;97.30;;;;;;5031477;28;20273;-76
2022/04/29 05:54:31;;;;;;;33.27;16.00;;;8.40;97.30;;;;;;5030869;28;20982;-76
2022/04/29 05:56:57;;;;;;;28.93;14.10;;;8.50;97.30;;;;;;5030958;28;20466;-76
2022/04/29 05:59:22;;;;;;;27.60;13.47;;;8.60;97.30;;;;;;5032621;28;20445;-76
2022/04/29 06:01:48;;;;;;;28.40;14.40;;;8.70;97.30;;;;;;5030583;28;20502;-76
2022/04/29 06:04:14;;;;;;;28.60;13.40;;;8.80;97.30;;;;;;5030983;28;20231;-76
2022/04/29 06:06:39;;;;;;;32.97;13.40;;;8.90;97.30;;;;;;5030877;28;20555;-76
2022/04/29 06:09:05;;;;;;;30.60;13.00;;;9.00;97.30;;;;;;5030800;28;20753;-76
2022/04/29 06:11:30;;;;;;;25.87;13.43;;;9.20;97.30;;;;;;5031984;28;20655;-76
2022/04/29 06:13:56;;;;;;;34.17;12.30;;;9.30;97.30;;;;;;5032209;28;20185;-76
2022/04/29 06:16:22;;;;;;;30.40;12.80;;;9.40;97.30;;;;;;5030666;28;20690;-76
2022/04/29 06:18:47;;;;;;;26.80;12.23;;;9.60;97.30;;;;;;5032375;28;20208;-76
2022/04/29 06:21:13;;;;;;;22.57;12.07;;;9.70;97.30;;;;;;5030937;28;20557;-76
2022/04/29 06:23:39;;;;;;;37.23;12.43;;;9.90;97.30;;;;;;5031879;28;20255;-76
2022/04/29 06:26:05;;;;;;;32.10;11.67;;;10.00;97.30;;;;;;5031825;28;20223;-76
2022/04/29 06:28:32;;;;;;;31.87;10.90;;;10.10;97.30;;;;;;5031822;28;20234;-76
2022/04/29 06:30:57;;;;;;;37.60;13.77;;;10.30;97.30;;;;;;5031978;28;20677;-76
2022/04/29 06:33:23;;;;;;;25.47;11.87;;;10.40;97.30;;;;;;5030517;28;20412;-76
2022/04/29 06:35:50;;;;;;;26.00;12.63;;;10.50;97.30;;;;;;5030551;28;20196;-76
2022/04/29 06:38:15;;;;;;;31.27;11.37;;;10.70;97.30;;;;;;5031533;28;20299;-76
2022/04/29 06:40:41;;;;;;;27.50;12.90;;;10.80;97.30;;;;;;5030527;28;20419;-76
2022/04/29 06:43:07;;;;;;;34.97;12.13;;;10.90;97.30;;;;;;5030298;28;20647;-76
2022/04/29 06:45:32;;;;;;;22.90;11.50;;;11.00;97.30;;;;;;5029943;28;20738;-76
2022/04/29 06:47:58;;;;;;;24.40;11.70;;;11.10;97.30;;;;;;5031564;28;20183;-76
2022/04/29 06:50:24;;;;;;;21.43;11.30;;;11.20;97.30;;;;;;5030171;28;20639;-76
2022/04/29 06:52:50;;;;;;;28.40;12.90;;;11.30;97.30;;;;;;5031258;28;20176;-77
2022/04/29 06:55:15;;;;;;;27.03;11.30;;;11.40;97.30;;;;;;5031537;28;20196;-77
2022/04/29 06:57:41;;;;;;;29.70;12.43;;;11.60;97.30;;;;;;5029888;28;20262;-76
2022/04/29 07:00:08;;;;;;;29.93;12.17;;;11.70;97.30;;;;;;5030131;28;20172;-77
2022/04/29 07:02:34;;;;;;;20.33;10.80;;;11.90;97.30;;;;;;5031433;28;20172;-76
2022/04/29 07:04:59;;;;;;;23.53;11.47;;;12.10;97.00;;;;;;5031034;28;20434;-77
2022/04/29 07:07:28;;;;;;;21.70;10.83;;;12.30;96.60;;;;;;5029485;28;20949;-76
2022/04/29 07:09:55;;;;;;;19.30;10.63;;;12.40;96.30;;;;;;5031042;28;20173;-76
2022/04/29 07:12:20;;;;;;;18.47;9.67;;;12.60;96.00;;;;;;5031045;28;20934;-76
2022/04/29 07:14:46;;;;;;;30.40;10.57;;;12.80;95.10;;;;;;5029517;28;20435;-76
2022/04/29 07:17:11;;;;;;;21.93;10.90;;;12.90;94.70;;;;;;5029467;28;20713;-76
2022/04/29 07:19:37;;;;;;;21.57;9.90;;;13.10;93.40;;;;;;5029699;28;20176;-76
2022/04/29 07:22:06;;;;;;;12.90;8.30;;;13.30;93.20;;;;;;5029477;28;20169;-76
2022/04/29 07:24:32;;;;;;;19.43;8.43;;;13.40;93.20;;;;;;5029532;28;20585;-76
2022/04/29 07:26:58;;;;;;;15.70;7.83;;;13.40;91.40;;;;;;5029020;28;20419;-76
2022/04/29 07:29:24;;;;;;;18.03;8.37;;;13.50;91.40;;;;;;5029282;28;20187;-77
2022/04/29 07:31:49;;;;;;;16.10;9.40;;;13.50;91.40;;;;;;5031232;28;20415;-76
2022/04/29 07:34:15;;;;;;;20.77;9.83;;;13.50;91.40;;;;;;5030614;28;20175;-76
2022/04/29 07:42:08;;;;;;;14.40;8.40;;;13.50;91.40;;;;;;5030788;28;20494;-77
2022/04/29 07:44:34;;;;;;;18.93;8.57;;;13.60;91.40;;;;;;5030851;28;20510;-76
2022/04/29 07:47:00;;;;;;;15.60;8.90;;;13.60;90.60;;;;;;5030474;28;20183;-77
2022/04/29 07:49:26;;;;;;;17.07;8.00;;;13.60;89.70;;;;;;5028845;28;20543;-77
2022/04/29 07:51:52;;;;;;;13.60;7.63;;;13.60;89.40;;;;;;5029127;28;20419;-77
2022/04/29 07:54:17;;;;;;;18.53;9.13;;;13.50;89.50;;;;;;5028804;28;20451;-76
2022/04/29 07:56:43;;;;;;;13.30;8.40;;;13.60;89.70;;;;;;5028895;28;20641;-77
2022/04/29 07:59:09;;;;;;;19.30;8.80;;;13.60;90.00;;;;;;5028906;28;20184;-77
2022/04/29 08:01:38;;;;;;;19.93;9.30;;;13.70;90.10;;;;;;5028664;28;20200;-77
2022/04/29 08:04:04;;;;;;;14.60;8.37;;;13.70;90.00;;;;;;5028465;28;20263;-76
2022/04/29 08:06:30;;;;;;;16.50;8.23;;;13.80;90.20;;;;;;5028711;28;20525;-76
2022/04/29 08:08:56;;;;;;;20.20;9.60;;;13.90;90.50;;;;;;5028968;28;20423;-76
2022/04/29 08:11:21;;;;;;;22.73;9.67;;;14.00;91.20;;;;;;5029903;28;20443;-77
2022/04/29 08:13:47;;;;;;;18.80;9.43;;;14.20;91.50;;;;;;5028867;28;20223;-76
2022/04/29 08:16:14;;;;;;;16.83;8.83;;;14.50;90.80;;;;;;5028401;28;20645;-77
2022/04/29 08:18:40;;;;;;;18.00;9.57;;;14.80;89.90;;;;;;5029909;28;20180;-76
2022/04/29 08:21:06;;;;;;;17.77;8.97;;;15.10;89.70;;;;;;5028847;28;20897;-77
2022/04/29 08:23:32;;;;;;;13.90;8.80;;;15.20;88.40;;;;;;5030039;28;20411;-77
2022/04/29 08:25:58;;;;;;;21.03;8.60;;;15.40;88.50;;;;;;5028618;28;20627;-77
2022/04/29 08:28:23;;;;;;;17.17;9.10;;;15.50;87.90;;;;;;5028409;28;20221;-77
2022/04/29 08:30:49;;;;;;;24.67;9.47;;;15.60;88.60;;;;;;5028533;28;20651;-77
2022/04/29 08:33:15;;;;;;;13.30;8.47;;;15.70;87.50;;;;;;5029622;28;20255;-77
2022/04/29 08:35:42;;;;;;;13.07;8.10;;;15.80;87.10;;;;;;5027991;28;20505;-76
2022/04/29 08:38:10;;;;;;;24.13;8.40;;;16.00;86.50;;;;;;5027218;28;20309;-77
2022/04/29 08:40:41;;;;;;;13.53;7.70;;;16.20;85.40;;;;;;5029686;28;20403;-77
2022/04/29 08:43:08;;;;;;;15.77;7.90;;;16.20;84.70;;;;;;5028120;28;20419;-77
2022/04/29 08:45:36;;;;;;;16.17;8.00;;;16.30;84.50;;;;;;5028235;28;20449;-77
2022/04/29 08:48:03;;;;;;;17.20;8.10;;;16.40;85.00;;;;;;5028153;28;20411;-77
2022/04/29 08:50:30;;;;;;;14.03;8.07;;;16.40;85.20;;;;;;5029246;28;20801;-77
2022/04/29 08:52:56;;;;;;;16.13;7.07;;;16.50;84.70;;;;;;5028372;28;20571;-77
2022/04/29 09:01:01;;;;;;;11.70;5.83;;;16.30;83.60;;;;;;5032120;28;20415;-80
2022/04/29 09:03:27;;;;;;;12.00;6.70;;;16.30;81.90;;;;;;5031065;28;20412;-80
2022/04/29 09:05:52;;;;;;;14.83;7.10;;;16.30;83.40;;;;;;5032347;28;20431;-80
2022/04/29 09:08:20;;;;;;;9.40;6.43;;;16.20;82.90;;;;;;5030821;28;20258;-80
2022/04/29 09:10:56;;;;;;;12.13;6.47;;;16.10;83.70;;;;;;5031137;28;20176;-80
2022/04/29 09:13:27;;;;;;;13.27;6.43;;;16.10;83.40;;;;;;5031485;28;20417;-80
2022/04/29 09:15:57;;;;;;;9.97;5.40;;;16.20;83.60;;;;;;5031396;28;20857;-80
2022/04/29 09:18:40;;;;;;;8.70;5.17;;;16.20;83.00;;;;;;5030791;28;20485;-80
2022/04/29 09:21:07;;;;;;;9.80;5.13;;;16.20;81.20;;;;;;5031175;28;20486;-80
2022/04/29 09:23:36;;;;;;;9.57;5.83;;;16.20;81.00;;;;;;5031228;28;20479;-80
2022/04/29 09:26:05;;;;;;;7.80;5.40;;;16.30;81.40;;;;;;5032102;28;20427;-80
2022/04/29 09:28:34;;;;;;;17.10;6.23;;;16.40;82.50;;;;;;5030458;28;20837;-80
2022/04/29 09:31:00;;;;;;;12.90;6.33;;;16.60;82.80;;;;;;5032429;28;21059;-80
2022/04/29 09:33:27;;;;;;;11.90;5.73;;;16.70;82.90;;;;;;5030839;28;20519;-79
2022/04/29 09:35:54;;;;;;;11.97;6.10;;;16.80;82.30;;;;;;5030966;28;20478;-80
2022/04/29 09:41:06;;;;;;;11.40;5.57;;;17.00;79.30;;;;;;5032484;28;20510;-80
2022/04/29 09:43:36;;;;;;;7.87;4.50;;;17.00;77.80;;;;;;5031951;28;20470;-80
2022/04/29 09:46:13;;;;;;;8.23;5.00;;;17.10;78.10;;;;;;5031390;28;20495;-80
2022/04/29 09:49:00;;;;;;;7.03;4.60;;;17.20;79.00;;;;;;5032059;28;20457;-80
2022/04/29 09:51:42;;;;;;;6.90;4.60;;;17.30;77.70;;;;;;5034071;28;20538;-80
2022/04/29 09:54:24;;;;;;;10.63;4.93;;;17.30;78.70;;;;;;5034584;28;20482;-80
2022/04/29 09:57:09;;;;;;;12.80;5.50;;;17.50;79.70;;;;;;5035283;28;20446;-80
2022/04/29 09:59:46;;;;;;;10.50;4.77;;;17.60;78.70;;;;;;5033499;28;20932;-80
2022/04/29 10:02:32;;;;;;;6.60;4.37;;;17.80;78.20;;;;;;5034548;28;20413;-80
2022/04/29 10:04:57;;;;;;;14.17;5.30;;;18.10;77.20;;;;;;5034346;28;20869;-80
2022/04/29 10:07:24;;;;;;;15.90;5.60;;;18.30;78.60;;;;;;5033696;28;20446;-80
2022/04/29 10:09:52;;;;;;;9.30;6.10;;;18.50;78.60;;;;;;5035244;28;20404;-80
2022/04/29 10:12:19;;;;;;;14.00;6.33;;;18.60;76.80;;;;;;5033380;28;20481;-80
2022/04/29 10:14:47;;;;;;;10.97;5.80;;;18.40;76.10;;;;;;5033489;28;20462;-80
2022/04/29 10:23:05;;;;;;;7.70;5.50;;;17.90;76.90;;;;;;5035923;28;20413;-81
2022/04/29 10:25:31;;;;;;;15.20;6.83;;;18.00;77.20;;;;;;5033514;28;20445;-80
2022/04/29 10:27:59;;;;;;;12.93;5.67;;;18.00;75.70;;;;;;5035026;28;20415;-80
2022/04/29 10:30:29;;;;;;;11.50;5.97;;;18.10;75.70;;;;;;5032882;28;20507;-80
2022/04/29 10:33:12;;;;;;;8.23;5.37;;;18.20;75.70;;;;;;5034656;28;20433;-80
2022/04/29 10:35:42;;;;;;;10.30;4.67;;;18.20;77.10;;;;;;5034441;28;21026;-81
2022/04/29 10:38:14;;;;;;;13.60;5.30;;;18.30;76.10;;;;;;5032891;28;20482;-80
2022/04/29 10:40:40;;;;;;;11.27;5.33;;;18.30;75.70;;;;;;5033108;28;20452;-80
2022/04/29 10:43:13;;;;;;;6.53;4.53;;;18.40;75.50;;;;;;5035283;28;20411;-80
2022/04/29 10:46:06;;;;;;;10.00;4.97;;;18.40;75.80;;;;;;5034822;28;20435;-79
2022/04/29 10:48:38;;;;;;;12.27;5.83;;;18.40;75.40;;;;;;5026941;28;20429;-81
2022/04/29 10:51:26;;;;;;;14.50;5.20;;;18.40;75.80;;;;;;5033047;28;20431;-80
2022/04/29 10:53:55;;;;;;;10.43;5.27;;;18.30;76.20;;;;;;5033723;28;20923;-80
2022/04/29 10:56:30;;;;;;;7.37;4.97;;;18.30;76.90;;;;;;5034419;28;20458;-79
2022/04/29 10:59:15;;;;;;;11.70;4.53;;;18.50;76.90;;;;;;5031642;28;20434;-80
2022/04/29 11:02:07;;;;;;;12.20;4.80;;;18.80;77.50;;;;;;5032139;28;20430;-80
2022/04/29 11:04:34;;;;;;;10.00;5.27;;;19.10;74.60;;;;;;5029343;28;20999;-80
2022/04/29 11:07:00;;;;;;;9.70;4.80;;;19.20;74.60;;;;;;5033655;28;20502;-81
2022/04/29 11:09:48;;;;;;;13.03;5.50;;;19.20;72.70;;;;;;5032164;28;20430;-80
2022/04/29 11:12:39;;;;;;;8.60;5.13;;;19.10;73.80;;;;;;5032998;28;20415;-80
2022/04/29 11:15:14;;;;;;;12.83;5.57;;;19.20;74.80;;;;;;5031888;28;20447;-79
2022/04/29 11:17:41;;;;;;;11.70;6.83;;;19.30;74.70;;;;;;5025674;28;21212;-80
2022/04/29 11:20:21;;;;;;;8.50;5.00;;;19.40;75.20;;;;;;5033201;28;20559;-80
2022/04/29 11:25:51;;;;;;;8.53;4.73;;;19.70;73.80;;;;;;5034039;28;20505;-79
2022/04/29 11:28:18;;;;;;;17.73;4.77;;;20.00;73.40;;;;;;5048570;28;20476;-80
2022/04/29 11:30:45;;;;;;;7.37;4.67;;;20.00;72.90;;;;;;5032310;28;20439;-79
2022/04/29 11:33:11;;;;;;;7.70;5.10;;;20.20;72.50;;;;;;5033607;28;20851;-80
2022/04/29 11:35:37;;;;;;;12.40;5.03;;;20.30;72.50;;;;;;5034676;28;20431;-80
2022/04/29 11:38:08;;;;;;;5.63;4.30;;;20.30;70.50;;;;;;5035297;28;20482;-81
2022/04/29 11:40:39;;;;;;;7.53;4.27;;;20.30;72.30;;;;;;5036589;28;20225;-80
2022/04/29 11:43:10;;;;;;;9.07;4.53;;;20.30;71.50;;;;;;5033902;28;20414;-80
2022/04/29 11:45:41;;;;;;;9.43;5.23;;;20.50;72.00;;;;;;5037507;28;20447;-81
2022/04/29 11:48:08;;;;;;;11.07;4.70;;;20.60;71.80;;;;;;5039372;28;20502;-81
2022/04/29 11:50:37;;;;;;;9.70;5.30;;;20.60;72.10;;;;;;5038248;28;20431;-81
2022/04/29 11:53:06;;;;;;;7.90;4.77;;;20.70;70.40;;;;;;5046935;28;20855;-80
2022/04/29 11:55:35;;;;;;;8.63;5.30;;;20.70;70.20;;;;;;5034771;28;20803;-76
2022/04/29 11:58:06;;;;;;;7.53;4.53;;;20.90;71.10;;;;;;5031916;28;20470;-76
2022/04/29 12:00:34;;;;;;;7.10;4.93;;;21.10;71.20;;;;;;5028553;28;20485;-75
2022/04/29 12:03:02;;;;;;;8.90;5.20;;;21.10;70.20;;;;;;5028269;28;20740;-75
2022/04/29 12:05:29;;;;;;;8.60;5.53;;;21.10;71.00;;;;;;5032650;28;20443;-76
2022/04/29 12:08:07;;;;;;;13.33;5.60;;;21.10;69.80;;;;;;5032965;28;20531;-78
2022/04/29 12:10:33;;;;;;;16.73;4.90;;;21.10;69.60;;;;;;5036427;28;20434;-78
2022/04/29 12:13:00;;;;;;;10.60;5.37;;;21.20;70.70;;;;;;5011715;22;20529;-90
2022/04/29 12:15:37;;;;;;;8.93;4.97;;;21.20;70.30;;;;;;4909674;28;20424;-90
2022/04/29 12:18:10;;;;;;;10.60;5.20;;;21.40;69.50;;;;;;4916681;28;20542;-90
2022/04/29 12:20:39;;;;;;;10.20;5.30;;;21.40;66.90;;;;;;4908401;29;20425;-90
2022/04/29 12:23:13;;;;;;;8.30;4.77;;;21.30;67.20;;;;;;4909230;29;20433;-90
2022/04/29 12:25:45;;;;;;;10.07;5.33;;;21.20;66.60;;;;;;4909340;29;20437;-91
2022/04/29 12:28:18;;;;;;;11.90;5.30;;;21.20;67.30;;;;;;4908584;29;20432;-90
2022/04/29 12:36:57;;;;;;;8.73;4.97;;;20.50;66.10;;;;;;4907624;29;20460;-91
2022/04/29 12:39:37;;;;;;;10.00;4.70;;;20.70;68.80;;;;;;4908508;28;20425;-87
2022/04/29 12:42:21;;;;;;;9.23;4.87;;;20.90;70.00;;;;;;4912083;29;20492;-91
2022/04/29 12:47:43;;;;;;;14.93;4.40;;;21.00;67.90;;;;;;4912744;28;20423;-91
2022/04/29 12:50:16;;;;;;;9.23;4.10;;;21.20;68.70;;;;;;4910269;29;20571;-91
2022/04/29 12:53:06;;;;;;;13.67;4.50;;;21.30;69.90;;;;;;4911867;29;20448;-90
2022/04/29 12:55:37;;;;;;;7.53;4.90;;;21.40;67.90;;;;;;4901109;29;20885;-89
2022/04/29 12:58:14;;;;;;;7.93;4.73;;;21.30;68.10;;;;;;4909507;29;20506;-89
2022/04/29 13:00:45;;;;;;;9.80;5.20;;;21.50;68.30;;;;;;4911274;29;20424;-91
2022/04/29 13:03:17;;;;;;;7.87;4.50;;;21.50;66.70;;;;;;4913214;28;20510;-91
2022/04/29 13:05:43;;;;;;;8.20;4.63;;;21.70;67.90;;;;;;4913185;29;21305;-92
2022/04/29 13:08:09;;;;;;;10.50;4.80;;;21.80;66.00;;;;;;4910777;28;20476;-89
2022/04/29 13:10:49;;;;;;;9.30;4.63;;;21.80;66.50;;;;;;4952221;28;20251;-91
2022/04/29 13:13:15;;;;;;;8.83;4.67;;;21.80;66.90;;;;;;4915106;28;20480;-90
2022/04/29 13:15:41;;;;;;;5.83;4.30;;;22.10;68.30;;;;;;4950925;28;20978;-91
2022/04/29 13:18:07;;;;;;;8.53;4.80;;;22.30;67.30;;;;;;4957444;28;20451;-92